createdAt,value
2022-10-05T00:02:22.042Z,101171.41
2022-10-05T00:04:52.448Z,101180.97
2022-10-05T00:07:21.096Z,101182.72
2022-10-05T00:10:14.417Z,101171.53
2022-10-05T00:12:40.934Z,101164.56
2022-10-05T00:15:12.049Z,101187.81
2022-10-05T00:17:38.848Z,101172.34
2022-10-05T00:20:31.604Z,101171.25
2022-10-05T00:23:01.773Z,101170.47
2022-10-05T00:25:28.581Z,101167.00
2022-10-05T00:27:57.424Z,101183.34
2022-10-05T00:30:26.494Z,101178.13
2022-10-05T00:32:56.107Z,101157.41
2022-10-05T00:35:25.934Z,101146.91
2022-10-05T00:37:54.702Z,101158.00
2022-10-05T00:40:33.289Z,101151.00
2022-10-05T00:43:18.192Z,101153.63
2022-10-05T00:46:05.014Z,101146.59
2022-10-05T00:48:44.151Z,101152.69
2022-10-05T00:51:10.635Z,101145.63
2022-10-05T00:53:47.898Z,101146.50
2022-10-05T00:56:33.223Z,101143.84
2022-10-05T00:59:12.009Z,101147.34
2022-10-05T01:01:50.915Z,101135.00
2022-10-05T01:04:34.156Z,101128.88
2022-10-05T01:07:24.926Z,101121.03
2022-10-05T01:10:22.589Z,101122.72
2022-10-05T01:12:54.143Z,101105.28
2022-10-05T01:15:26.483Z,101098.16
2022-10-05T01:18:03.025Z,101081.09
2022-10-05T01:20:49.884Z,101105.13
2022-10-05T01:23:43.530Z,101104.22
2022-10-05T01:26:38.900Z,101103.31
2022-10-05T01:29:18.510Z,101089.53
2022-10-05T01:32:10.649Z,101091.31
2022-10-05T01:34:49.628Z,101094.59
2022-10-05T01:37:40.725Z,101086.72
2022-10-05T01:40:27.429Z,101079.69
2022-10-05T01:43:06.029Z,101064.78
2022-10-05T01:46:03.022Z,101040.59
2022-10-05T01:48:53.769Z,101043.81
2022-10-05T01:51:47.839Z,101038.63
2022-10-05T01:54:51.642Z,101036.00
2022-10-05T01:57:50.392Z,101030.84
2022-10-05T02:00:18.638Z,101037.75
2022-10-05T02:02:56.975Z,101009.38
2022-10-05T02:05:41.024Z,101020.53
2022-10-05T02:08:15.628Z,101027.31
2022-10-05T02:10:49.175Z,101020.59
2022-10-05T02:13:21.467Z,101039.53
2022-10-05T02:16:00.502Z,101030.84
2022-10-05T02:18:33.872Z,101000.41
2022-10-05T02:21:04.561Z,101002.25
2022-10-05T02:23:34.402Z,101011.63
2022-10-05T02:26:01.593Z,101002.25
2022-10-05T02:28:48.058Z,101016.94
2022-10-05T02:31:31.011Z,101015.22
2022-10-05T02:34:23.619Z,101009.13
2022-10-05T02:37:05.254Z,100986.66
2022-10-05T02:39:58.754Z,100989.13
2022-10-05T02:42:56.351Z,100999.47
2022-10-05T02:45:36.290Z,100997.72
2022-10-05T02:48:08.284Z,100983.97
2022-10-05T02:50:41.447Z,100996.84
2022-10-05T02:53:25.884Z,100994.22
2022-10-05T02:56:07.756Z,100984.03
2022-10-05T02:58:47.935Z,100971.78
2022-10-05T03:01:27.393Z,100962.19
2022-10-05T03:04:18.445Z,100965.47
2022-10-05T03:07:02.087Z,100956.88
2022-10-05T03:09:42.055Z,100965.38
2022-10-05T03:12:36.212Z,100938.59
2022-10-05T03:15:08.987Z,100962.78
2022-10-05T03:18:08.627Z,100930.91
2022-10-05T03:20:41.341Z,100944.44
2022-10-05T03:23:21.127Z,100934.16
2022-10-05T03:26:07.957Z,100915.94
2022-10-05T03:28:46.759Z,100934.81
2022-10-05T03:31:29.564Z,100940.06
2022-10-05T03:34:06.179Z,100922.69
2022-10-05T03:36:49.257Z,100928.72
2022-10-05T03:39:34.506Z,100911.53
2022-10-05T03:42:27.592Z,100918.31
2022-10-05T03:45:09.170Z,100901.78
2022-10-05T03:47:38.825Z,100903.41
2022-10-05T03:50:22.796Z,100899.13
2022-10-05T03:53:09.278Z,100906.97
2022-10-05T03:56:03.299Z,100903.47
2022-10-05T03:58:33.577Z,100893.84
2022-10-05T04:01:06.362Z,100893.88
2022-10-05T04:03:39.244Z,100854.25
2022-10-05T04:06:14.739Z,100887.81
2022-10-05T04:09:07.216Z,100894.03
2022-10-05T04:11:43.162Z,100893.97
2022-10-05T04:14:27.603Z,100889.69
2022-10-05T04:17:09.417Z,100868.91
2022-10-05T04:19:41.444Z,100889.69
2022-10-05T04:22:18.176Z,100872.53
2022-10-05T04:24:49.742Z,100867.00
2022-10-05T04:27:30.845Z,100874.97
2022-10-05T04:30:04.145Z,100867.09
2022-10-05T04:32:53.674Z,100861.78
2022-10-05T04:35:44.738Z,100860.03
2022-10-05T04:38:30.092Z,100855.69
2022-10-05T04:41:18.898Z,100849.53
2022-10-05T04:44:22.567Z,100834.00
2022-10-05T04:47:22.357Z,100824.75
2022-10-05T04:50:07.550Z,100839.91
2022-10-05T04:52:59.708Z,100838.19
2022-10-05T04:55:47.471Z,100838.19
2022-10-05T04:58:19.826Z,100832.09
2022-10-05T05:01:07.983Z,100827.78
2022-10-05T05:03:48.705Z,100827.78
2022-10-05T05:06:24.348Z,100815.56
2022-10-05T05:09:11.935Z,100827.81
2022-10-05T05:11:38.401Z,100816.44
2022-10-05T05:14:19.527Z,100805.13
2022-10-05T05:17:08.499Z,100796.56
2022-10-05T05:19:57.475Z,100803.34
2022-10-05T05:22:49.665Z,100801.56
2022-10-05T05:25:28.757Z,100794.59
2022-10-05T05:28:04.098Z,100786.69
2022-10-05T05:30:40.547Z,100790.47
2022-10-05T05:33:38.389Z,100755.09
2022-10-05T05:36:07.913Z,100783.22
2022-10-05T05:39:12.158Z,100783.41
2022-10-05T05:41:50.179Z,100774.81
2022-10-05T05:44:38.586Z,100792.00
2022-10-05T05:47:30.044Z,100794.59
2022-10-05T05:50:07.594Z,100794.66
2022-10-05T05:52:49.268Z,100779.84
2022-10-05T05:55:24.357Z,100786.13
2022-10-05T05:58:20.442Z,100762.72
2022-10-05T06:00:55.008Z,100779.97
2022-10-05T06:03:28.100Z,100774.81
2022-10-05T06:05:59.272Z,100780.69
2022-10-05T06:08:38.388Z,100802.34
2022-10-05T06:11:36.519Z,100792.97
2022-10-05T06:14:17.108Z,100797.13
2022-10-05T06:16:59.018Z,100793.78
2022-10-05T06:19:27.245Z,100802.28
2022-10-05T06:21:56.881Z,100805.69
2022-10-05T06:24:31.674Z,100774.63
2022-10-05T06:27:07.616Z,100807.34
2022-10-05T06:30:11.066Z,100806.47
2022-10-05T06:32:42.750Z,100802.88
2022-10-05T06:35:19.325Z,100811.56
2022-10-05T06:38:04.886Z,100808.88
2022-10-05T06:40:56.308Z,100803.56
2022-10-05T06:43:28.947Z,100817.47
2022-10-05T06:46:34.550Z,100806.03
2022-10-05T06:49:25.656Z,100789.59
2022-10-05T06:52:34.179Z,100806.88
2022-10-05T06:55:22.880Z,100805.00
2022-10-05T06:58:12.089Z,100795.47
2022-10-05T07:00:47.348Z,100787.69
2022-10-05T07:03:57.828Z,100804.88
2022-10-05T07:07:17.030Z,100784.97
2022-10-05T07:10:07.659Z,100752.84
2022-10-05T07:12:56.345Z,100777.56
2022-10-05T07:15:40.872Z,100780.09
2022-10-05T07:18:27.179Z,100792.34
2022-10-05T07:21:03.764Z,100784.44
2022-10-05T07:24:08.082Z,100786.19
2022-10-05T07:26:42.659Z,100768.72
2022-10-05T07:29:16.708Z,100771.28
2022-10-05T07:31:53.523Z,100769.44
2022-10-05T07:34:50.266Z,100767.63
2022-10-05T07:37:27.973Z,100756.44
2022-10-05T07:40:01.324Z,100770.94
2022-10-05T07:42:52.406Z,100771.72
2022-10-05T07:45:29.893Z,100769.00
2022-10-05T07:48:06.064Z,100755.97
2022-10-05T07:50:53.034Z,100748.16
2022-10-05T07:53:27.357Z,100753.91
2022-10-05T07:55:58.428Z,100733.28
2022-10-05T07:58:57.363Z,100731.38
2022-10-05T08:01:35.444Z,100745.78
2022-10-05T08:04:16.358Z,100753.25
2022-10-05T08:06:53.899Z,100748.03
2022-10-05T08:09:26.612Z,100741.75
2022-10-05T08:12:30.974Z,100728.72
2022-10-05T08:15:09.700Z,100743.25
2022-10-05T08:17:59.934Z,100735.31
2022-10-05T08:20:35.709Z,100729.16
2022-10-05T08:23:15.869Z,100712.25
2022-10-05T08:29:13.750Z,100729.94
2022-10-05T08:31:45.812Z,100721.84
2022-10-05T08:34:49.783Z,100725.19
2022-10-05T08:37:31.864Z,100716.31
2022-10-05T08:40:36.897Z,100728.81
2022-10-05T08:43:06.618Z,100722.41
2022-10-05T08:45:45.883Z,100711.72
2022-10-05T08:48:41.964Z,100718.69
2022-10-05T08:51:23.856Z,100723.03
2022-10-05T08:54:05.854Z,100730.91
2022-10-05T08:56:35.421Z,100722.09
2022-10-05T08:59:20.650Z,100722.22
2022-10-05T09:02:15.172Z,100718.69
2022-10-05T09:04:54.369Z,100704.47
2022-10-05T09:07:48.792Z,100697.06
2022-10-05T09:10:37.513Z,100708.66
2022-10-05T09:13:22.380Z,100654.97
2022-10-05T09:16:16.853Z,100690.44
2022-10-05T09:19:07.977Z,100670.41
2022-10-05T09:21:57.763Z,100689.31
2022-10-05T09:24:48.504Z,100651.63
2022-10-05T09:27:17.316Z,100652.69
2022-10-05T09:30:14.891Z,100678.31
2022-10-05T09:33:03.357Z,100667.06
2022-10-05T09:36:12.526Z,100652.03
2022-10-05T09:39:25.928Z,100674.81
2022-10-05T09:42:29.781Z,100660.56
2022-10-05T09:44:59.622Z,100662.81
2022-10-05T09:47:29.327Z,100660.59
2022-10-05T09:50:25.321Z,100653.25
2022-10-05T09:53:29.174Z,100651.38
2022-10-05T09:55:55.708Z,100645.75
2022-10-05T09:58:44.520Z,100641.53
2022-10-05T10:01:33.044Z,100650.69
2022-10-05T10:04:21.230Z,100616.41
2022-10-05T10:07:25.472Z,100638.50
2022-10-05T10:10:30.158Z,100639.16
2022-10-05T10:13:34.294Z,100630.13
2022-10-05T10:16:18.169Z,100643.13
2022-10-05T10:19:03.527Z,100640.25
2022-10-05T10:21:41.683Z,100619.63
2022-10-05T10:24:18.598Z,100631.53
2022-10-05T10:27:03.452Z,100626.03
2022-10-05T10:29:56.716Z,100627.41
2022-10-05T10:32:32.151Z,100623.97
2022-10-05T10:35:20.169Z,100625.03
2022-10-05T10:37:52.889Z,100632.97
2022-10-05T10:40:28.669Z,100636.53
2022-10-05T10:43:37.071Z,100636.72
2022-10-05T10:49:58.693Z,100624.69
2022-10-05T10:53:01.378Z,100620.56
2022-10-05T10:55:40.157Z,100617.47
2022-10-05T10:58:44.293Z,100634.78
2022-10-05T11:01:16.723Z,100612.81
2022-10-05T11:04:07.143Z,100612.13
2022-10-05T11:06:51.530Z,100598.38
2022-10-05T11:09:28.940Z,100586.59
2022-10-05T11:12:04.204Z,100622.13
2022-10-05T11:14:50.138Z,100630.19
2022-10-05T11:17:47.836Z,100609.06
2022-10-05T11:20:35.740Z,100618.56
2022-10-05T11:23:26.970Z,100614.81
2022-10-05T11:26:09.221Z,100591.31
2022-10-05T11:29:00.096Z,100628.94
2022-10-05T11:31:53.296Z,100616.91
2022-10-05T11:34:38.866Z,100633.91
2022-10-05T11:37:34.324Z,100613.13
2022-10-05T11:40:14.422Z,100631.03
2022-10-05T11:42:59.244Z,100611.28
2022-10-05T11:45:35.420Z,100610.44
2022-10-05T11:48:30.283Z,100628.72
2022-10-05T11:51:11.823Z,100622.91
2022-10-05T11:54:06.574Z,100624.28
2022-10-05T11:56:42.167Z,100605.66
2022-10-05T11:59:34.785Z,100623.94
2022-10-05T12:02:41.209Z,100621.53
2022-10-05T12:05:48.236Z,100618.97
2022-10-05T12:08:20.753Z,100615.53
2022-10-05T12:11:29.107Z,100634.28
2022-10-05T12:13:55.507Z,100639.72
2022-10-05T12:16:28.464Z,100645.28
2022-10-05T12:19:13.647Z,100647.28
2022-10-05T12:21:49.275Z,100646.38
2022-10-05T12:24:29.819Z,100657.84
2022-10-05T12:27:07.309Z,100645.16
2022-10-05T12:29:39.687Z,100656.28
2022-10-05T12:32:22.421Z,100639.44
2022-10-05T12:35:29.983Z,100657.97
2022-10-05T12:38:40.345Z,100655.84
2022-10-05T12:41:30.342Z,100651.97
2022-10-05T12:44:24.567Z,100643.53
2022-10-05T12:47:00.095Z,100650.94
2022-10-05T12:49:47.931Z,100652.91
2022-10-05T12:52:23.447Z,100653.19
2022-10-05T12:55:06.469Z,100636.34
2022-10-05T12:57:47.645Z,100630.56
2022-10-05T13:00:23.021Z,100653.91
2022-10-05T13:02:54.553Z,100643.56
2022-10-05T13:05:41.167Z,100649.06
2022-10-05T13:08:23.717Z,100652.78
2022-10-05T13:11:26.452Z,100673.09
2022-10-05T13:14:06.136Z,100665.41
2022-10-05T13:16:56.553Z,100661.06
2022-10-05T13:19:40.304Z,100643.72
2022-10-05T13:22:15.940Z,100656.75
2022-10-05T13:25:13.585Z,100680.56
2022-10-05T13:27:45.046Z,100675.41
2022-10-05T13:30:16.933Z,100673.72
2022-10-05T13:32:58.063Z,100690.41
2022-10-05T13:35:24.458Z,100691.28
2022-10-05T13:38:00.247Z,100684.53
2022-10-05T13:40:45.908Z,100689.47
2022-10-05T13:43:57.393Z,100688.47
2022-10-05T13:46:58.151Z,100706.09
2022-10-05T13:49:41.185Z,100713.66
2022-10-05T13:52:30.980Z,100772.25
2022-10-05T13:55:21.395Z,100790.25
2022-10-05T13:58:22.577Z,100846.16
2022-10-05T14:00:55.622Z,100852.28
2022-10-05T14:03:34.129Z,100859.66
2022-10-05T14:06:03.602Z,100854.72
2022-10-05T14:08:46.083Z,100858.81
2022-10-05T14:11:47.471Z,100878.66
2022-10-05T14:14:23.156Z,100880.75
2022-10-05T14:19:41.627Z,100862.66
2022-10-05T14:22:12.591Z,100892.31
2022-10-05T14:24:53.978Z,100890.84
2022-10-05T14:27:22.572Z,100901.47
2022-10-05T14:30:01.534Z,100868.91
2022-10-05T14:32:33.161Z,100888.25
2022-10-05T14:35:15.630Z,100915.97
2022-10-05T14:37:51.096Z,100912.69
2022-10-05T14:41:02.089Z,100928.44
2022-10-05T14:43:28.984Z,100922.38
2022-10-05T14:46:00.502Z,100934.50
2022-10-05T14:48:29.090Z,100933.75
2022-10-05T14:50:58.406Z,100926.06
2022-10-05T14:53:37.078Z,100934.63
2022-10-05T14:56:10.733Z,100932.97
2022-10-05T14:59:01.967Z,100954.56
2022-10-05T15:01:29.805Z,100971.97
2022-10-05T15:04:14.742Z,100981.53
2022-10-05T15:07:10.915Z,100984.13
2022-10-05T15:09:55.741Z,100985.84
2022-10-05T15:12:32.145Z,100987.63
2022-10-05T15:15:18.009Z,100984.13
2022-10-05T15:17:50.909Z,100987.63
2022-10-05T15:20:24.331Z,100986.81
2022-10-05T15:22:57.462Z,100981.75
2022-10-05T15:25:34.475Z,100985.19
2022-10-05T15:28:26.500Z,100999.06
2022-10-05T15:31:03.177Z,100997.22
2022-10-05T15:33:40.411Z,101030.88
2022-10-05T15:36:19.569Z,101004.91
2022-10-05T15:39:00.572Z,101018.81
2022-10-05T15:41:42.950Z,101044.78
2022-10-05T15:44:31.577Z,101039.53
2022-10-05T15:47:05.991Z,101043.84
2022-10-05T15:49:35.328Z,101053.34
2022-10-05T15:52:35.452Z,101044.78
2022-10-05T15:55:20.859Z,101048.19
2022-10-05T15:57:58.283Z,101070.56
2022-10-05T16:00:26.368Z,101066.84
2022-10-05T16:03:17.444Z,101055.72
2022-10-05T16:05:48.929Z,101077.22
2022-10-05T16:08:31.035Z,101084.16
2022-10-05T16:10:59.075Z,101078.88
2022-10-05T16:13:36.297Z,101061.50
2022-10-05T16:16:28.787Z,101075.06
2022-10-05T16:19:02.530Z,101068.81
2022-10-05T16:21:50.847Z,101086.81
2022-10-05T16:24:59.345Z,101097.09
2022-10-05T16:27:47.566Z,101095.25
2022-10-05T16:30:19.763Z,101098.16
2022-10-05T16:32:54.421Z,101123.31
2022-10-05T16:35:33.011Z,101135.69
2022-10-05T16:38:21.482Z,101127.13
2022-10-05T16:40:48.071Z,101131.59
2022-10-05T16:43:39.149Z,101119.69
2022-10-05T16:46:10.330Z,101141.22
2022-10-05T16:48:55.412Z,101126.50
2022-10-05T16:51:27.846Z,101130.97
2022-10-05T16:54:09.862Z,101149.38
2022-10-05T16:56:53.827Z,101136.63
2022-10-05T16:59:42.736Z,101159.28
2022-10-05T17:02:40.500Z,101171.63
2022-10-05T17:05:37.464Z,101176.13
2022-10-05T17:08:18.915Z,101184.88
2022-10-05T17:11:00.756Z,101194.56
2022-10-05T17:13:30.251Z,101199.84
2022-10-05T17:15:59.639Z,101211.28
2022-10-05T17:18:56.969Z,101224.50
2022-10-05T17:21:27.039Z,101224.59
2022-10-05T17:24:28.251Z,101215.34
2022-10-05T17:27:13.233Z,101236.22
2022-10-05T17:29:48.890Z,101256.31
2022-10-05T17:32:15.301Z,101249.44
2022-10-05T17:35:00.103Z,101259.16
2022-10-05T17:37:39.083Z,101268.81
2022-10-05T17:40:37.722Z,101286.34
2022-10-05T17:43:16.319Z,101291.56
2022-10-05T17:45:42.719Z,101305.63
2022-10-05T17:48:33.355Z,101295.28
2022-10-05T17:50:59.865Z,101316.19
2022-10-05T17:53:44.483Z,101331.09
2022-10-05T17:56:10.992Z,101330.28
2022-10-05T17:58:49.427Z,101336.47
2022-10-05T18:01:39.836Z,101366.16
2022-10-05T18:04:12.405Z,101367.03
2022-10-05T18:07:05.242Z,101375.81
2022-10-05T18:09:34.885Z,101379.31
2022-10-05T18:12:16.859Z,101385.44
2022-10-05T18:15:01.495Z,101395.13
2022-10-05T18:17:37.039Z,101409.94
2022-10-05T18:20:15.579Z,101409.97
2022-10-05T18:22:42.095Z,101417.81
2022-10-05T18:25:23.287Z,101415.25
2022-10-05T18:27:57.962Z,101433.53
2022-10-05T18:30:26.790Z,101459.66
2022-10-05T18:33:26.073Z,101452.84
2022-10-05T18:36:18.787Z,101472.06
2022-10-05T18:38:58.879Z,101467.06
2022-10-05T18:41:51.422Z,101479.31
2022-10-05T18:44:33.976Z,101474.25
2022-10-05T18:47:39.006Z,101488.31
2022-10-05T18:50:14.966Z,101496.19
2022-10-05T18:53:07.945Z,101523.25
2022-10-05T18:55:56.002Z,101530.31
2022-10-05T18:58:29.777Z,101545.97
2022-10-05T19:01:05.604Z,101552.13
2022-10-05T19:03:55.436Z,101547.81
2022-10-05T19:07:14.023Z,101547.00
2022-10-05T19:10:01.982Z,101561.75
2022-10-05T19:12:46.745Z,101565.25
2022-10-05T19:15:17.117Z,101551.41
2022-10-05T19:18:07.912Z,101565.31
2022-10-05T19:21:05.438Z,101605.22
2022-10-05T19:23:56.592Z,101603.50
2022-10-05T19:26:38.154Z,101602.63
2022-10-05T19:29:16.694Z,101588.72
2022-10-05T19:31:53.018Z,101607.81
2022-10-05T19:34:50.518Z,101624.34
2022-10-05T19:37:34.642Z,101636.47
2022-10-05T19:40:22.232Z,101619.09
2022-10-05T19:43:07.398Z,101659.03
2022-10-05T19:45:43.168Z,101657.28
2022-10-05T19:48:28.349Z,101665.94
2022-10-05T19:51:00.117Z,101676.34
2022-10-05T19:53:29.502Z,101674.66
2022-10-05T19:55:56.596Z,101678.09
2022-10-05T19:58:26.220Z,101673.75
2022-10-05T20:01:01.664Z,101702.38
2022-10-05T20:03:32.824Z,101703.25
2022-10-05T20:06:10.335Z,101711.06
2022-10-05T20:08:42.802Z,101711.91
2022-10-05T20:11:15.183Z,101705.88
2022-10-05T20:13:44.582Z,101724.06
2022-10-05T20:16:17.064Z,101725.78
2022-10-05T20:18:43.497Z,101737.97
2022-10-05T20:21:41.988Z,101740.53
2022-10-05T20:24:15.870Z,101750.97
2022-10-05T20:26:44.209Z,101752.69
2022-10-05T20:29:10.636Z,101761.34
2022-10-05T20:31:37.120Z,101770.06
2022-10-05T20:34:03.689Z,101783.94
2022-10-05T20:36:30.124Z,101766.53
2022-10-05T20:38:56.524Z,101780.44
2022-10-05T20:41:22.979Z,101781.28
2022-10-05T20:43:49.438Z,101779.53
2022-10-05T20:46:15.851Z,101787.34
2022-10-05T20:48:42.340Z,101811.66
2022-10-05T20:51:08.767Z,101804.69
2022-10-05T20:53:35.205Z,101820.34
2022-10-05T20:56:02.063Z,101822.03
2022-10-05T20:58:28.686Z,101827.25
2022-10-05T21:00:55.625Z,101834.19
2022-10-05T21:03:22.107Z,101839.41
2022-10-05T21:05:48.523Z,101846.34
2022-10-05T21:08:14.965Z,101851.53
2022-10-05T21:10:41.431Z,101848.94
2022-10-05T21:13:07.946Z,101848.94
2022-10-05T21:15:34.472Z,101856.72
2022-10-05T21:18:00.919Z,101860.19
2022-10-05T21:20:27.318Z,101876.69
2022-10-05T21:22:53.760Z,101876.66
2022-10-05T21:25:20.193Z,101887.97
2022-10-05T21:27:46.653Z,101890.53
2022-10-05T21:30:13.226Z,101901.78
2022-10-05T21:32:44.232Z,101907.81
2022-10-05T21:35:11.404Z,101927.78
2022-10-05T21:37:37.885Z,101915.63
2022-10-05T21:40:04.700Z,101927.75
2022-10-05T21:42:32.390Z,101917.34
2022-10-05T21:44:58.863Z,101918.22
2022-10-05T21:47:25.800Z,101919.94
2022-10-05T21:49:52.520Z,101925.13
2022-10-05T21:52:19.561Z,101945.91
2022-10-05T21:54:46.149Z,101950.22
2022-10-05T21:57:12.750Z,101951.97
2022-10-05T21:59:40.216Z,101952.84
2022-10-05T22:02:07.005Z,101947.59
2022-10-05T22:04:33.492Z,101956.25
2022-10-05T22:06:59.936Z,101976.19
2022-10-05T22:09:26.530Z,101973.56
2022-10-05T22:11:52.941Z,101977.94
2022-10-05T22:14:19.612Z,101976.19
2022-10-05T22:16:46.146Z,101986.63
2022-10-05T22:19:16.471Z,101999.59
2022-10-05T22:21:42.934Z,102010.84
2022-10-05T22:24:10.243Z,102013.44
2022-10-05T22:26:36.886Z,102019.50
2022-10-05T22:29:03.661Z,102016.00
2022-10-05T22:31:30.319Z,102015.97
2022-10-05T22:33:56.846Z,102026.38
2022-10-05T22:36:23.559Z,102029.81
2022-10-05T22:38:50.049Z,102030.63
2022-10-05T22:41:16.544Z,102023.66
2022-10-05T22:43:43.043Z,102035.84
2022-10-05T22:46:13.423Z,102038.41
2022-10-05T22:48:40.231Z,102040.13
2022-10-05T22:51:07.210Z,102056.63
2022-10-05T22:53:34.299Z,102066.13
2022-10-05T22:56:13.089Z,102058.22
2022-10-05T22:58:41.431Z,102064.28
2022-10-05T23:01:10.845Z,102097.31
2022-10-05T23:03:39.822Z,102088.59
2022-10-05T23:06:10.043Z,102091.16
2022-10-05T23:08:37.963Z,102092.03
2022-10-05T23:11:10.646Z,102104.13
2022-10-05T23:13:37.169Z,102104.94
2022-10-05T23:16:11.147Z,102117.94
2022-10-05T23:18:37.685Z,102112.69
2022-10-05T23:21:05.628Z,102115.28
2022-10-05T23:23:32.113Z,102124.78
2022-10-05T23:26:00.020Z,102129.09
2022-10-05T23:28:27.844Z,102136.88
2022-10-05T23:31:02.735Z,102138.59
2022-10-05T23:33:29.481Z,102132.47
2022-10-05T23:36:08.748Z,102143.72
2022-10-05T23:38:35.916Z,102148.91
2022-10-05T23:41:02.606Z,102151.50
2022-10-05T23:43:29.477Z,102153.16
2022-10-05T23:45:56.304Z,102164.44
2022-10-05T23:48:22.858Z,102165.25
2022-10-05T23:50:49.824Z,102172.97
2022-10-05T23:53:17.197Z,102182.56
2022-10-05T23:55:44.091Z,102192.91
2022-10-05T23:58:10.982Z,102188.53
